Time;durP1;ratioP1;P1;durP2;ratioP2;P2;SDS_P1;SDS_P2;PMS_P1;PMS_P2;Temp;Humidity;BMP_temperature;BMP_pressure;BME280_temperature;BME280_humidity;BME280_pressure;Samples;Min_cycle;Max_cycle;Signal;HPM_P1;HPM_P2
2021/05/06 00:33:48;;;;;;;4.88;1.50;;;358.90;1484.80;;;;;;5108113;28;20069;-76
2021/05/06 00:36:14;;;;;;;4.95;1.42;;;358.80;1510.40;;;;;;5110975;28;20019;-76
2021/05/06 00:38:47;;;;;;;3.63;1.15;;;358.90;1510.40;;;;;;5106102;28;20432;-75
2021/05/06 00:55:07;;;;;;;2.17;1.02;;;358.80;1561.60;;;;;;5049903;28;20052;-78
2021/05/06 01:12:53;;;;;;;13.32;5.50;;;358.40;1612.80;;;;;;5008543;28;20022;-78
2021/05/06 01:15:19;;;;;;;16.67;6.60;;;333.70;1587.20;;;;;;5011212;28;20026;-76
2021/05/06 01:17:44;;;;;;;19.63;5.80;;;333.60;1587.20;;;;;;5010508;28;20038;-79
2021/05/06 01:20:11;;;;;;;19.55;7.07;;;333.60;1587.20;;;;;;5050577;28;20118;-76
2021/05/06 01:22:37;;;;;;;16.38;5.80;;;333.70;1612.80;;;;;;5087202;28;20035;-76
2021/05/06 01:25:04;;;;;;;12.95;5.57;;;333.60;1612.80;;;;;;5088035;28;20048;-78
2021/05/06 01:27:59;;;;;;;12.68;4.43;;;333.60;1587.20;;;;;;5070419;28;20094;-77
2021/05/06 01:33:18;;;;;;;7.15;3.20;;;333.70;1587.20;;;;;;5089348;28;20032;-79
2021/05/06 01:35:51;;;;;;;7.28;3.13;;;333.60;1587.20;;;;;;5090540;28;20024;-76
2021/05/06 01:59:17;;;;;;;3.53;1.33;;;358.40;1587.20;;;;;;5112069;28;20042;-76
2021/05/06 02:01:43;;;;;;;8.15;2.78;;;333.70;1587.20;;;;;;5103896;28;20398;-75
2021/05/06 02:04:09;;;;;;;2.60;1.60;;;358.40;1561.60;;;;;;5106494;28;20028;-75
2021/05/06 02:06:34;;;;;;;1.52;1.08;;;358.40;1561.60;;;;;;5098237;28;20020;-79
2021/05/06 02:09:00;;;;;;;2.08;1.10;;;358.40;1587.20;;;;;;5101388;28;20379;-78
2021/05/06 02:11:26;;;;;;;2.22;1.13;;;333.70;1587.20;;;;;;5108062;28;20052;-75
2021/05/06 02:13:54;;;;;;;6.80;1.30;;;333.60;1612.80;;;;;;5109606;28;20468;-78
2021/05/06 02:16:30;;;;;;;2.55;1.20;;;333.60;1587.20;;;;;;5095067;28;20008;-76
2021/05/06 02:18:55;;;;;;;3.75;1.27;;;333.60;1612.80;;;;;;5102890;28;20486;-79
2021/05/06 02:21:21;;;;;;;2.42;1.20;;;333.60;1612.80;;;;;;5093248;28;20023;-76
2021/05/06 02:23:47;;;;;;;5.10;1.20;;;333.60;1612.80;;;;;;5106375;28;20046;-79
2021/05/06 02:26:13;;;;;;;5.30;1.52;;;333.50;1612.80;;;;;;5090854;28;20035;-76
2021/05/06 02:28:38;;;;;;;3.30;1.13;;;333.50;1612.80;;;;;;5102739;28;20016;-76
2021/05/06 02:31:04;;;;;;;5.43;1.30;;;333.50;1612.80;;;;;;5098422;28;20074;-75
2021/05/06 02:33:30;;;;;;;3.50;1.23;;;333.50;1638.40;;;;;;5079820;28;20107;-78
2021/05/06 02:35:55;;;;;;;1.98;1.20;;;333.60;1612.80;;;;;;5099258;28;20048;-76
2021/05/06 02:38:21;;;;;;;4.63;1.40;;;333.60;1612.80;;;;;;5097844;28;20402;-75
2021/05/06 02:40:47;;;;;;;2.65;1.25;;;333.60;1612.80;;;;;;5097388;28;20525;-75
2021/05/06 02:43:12;;;;;;;2.90;1.20;;;333.50;1612.80;;;;;;5095411;28;20024;-75
2021/05/06 02:45:38;;;;;;;2.67;1.10;;;333.50;1612.80;;;;;;5098221;28;20028;-76
2021/05/06 02:48:04;;;;;;;3.15;1.00;;;333.50;1612.80;;;;;;5094069;28;20454;-75
2021/05/06 02:50:30;;;;;;;1.83;1.00;;;333.50;1612.80;;;;;;5112217;28;20498;-75
2021/05/06 02:53:05;;;;;;;3.20;1.20;;;333.60;1612.80;;;;;;5102801;28;20072;-75
2021/05/06 03:03:13;;;;;;;2.97;1.13;;;333.70;1561.60;;;;;;5100847;28;20027;-75
2021/05/06 03:05:39;;;;;;;3.35;1.23;;;333.60;1561.60;;;;;;5091889;28;20020;-78
2021/05/06 03:24:17;;;;;;;5.05;1.58;;;333.70;1561.60;;;;;;5065992;28;20128;-75
2021/05/06 03:26:44;;;;;;;5.25;2.50;;;333.70;1561.60;;;;;;5055927;28;20028;-76
2021/05/06 03:29:14;;;;;;;3.88;1.77;;;358.40;1561.60;;;;;;5063758;28;20546;-76
2021/05/06 04:37:44;;;;;;;8.07;1.90;;;333.60;1331.20;;;;;;5099340;28;20023;-77
2021/05/06 04:40:15;;;;;;;1.83;1.02;;;333.60;1331.20;;;;;;5104310;28;20023;-78
2021/05/06 05:05:45;;;;;;;2.47;1.10;;;333.50;1331.20;;;;;;5100413;28;20506;-78
2021/05/06 05:08:14;;;;;;;3.40;1.40;;;333.60;1331.20;;;;;;5098368;28;20016;-78
2021/05/06 05:23:43;;;;;;;3.67;1.20;;;333.60;1331.20;;;;;;5101093;28;20031;-77
2021/05/06 05:26:11;;;;;;;4.22;1.55;;;333.60;1331.20;;;;;;5099416;28;20114;-78
2021/05/06 05:28:38;;;;;;;6.40;1.88;;;333.70;1331.20;;;;;;5101912;28;20443;-79
2021/05/06 05:31:04;;;;;;;5.78;2.13;;;333.70;1331.20;;;;;;5089709;28;20111;-79
2021/05/06 05:33:34;;;;;;;6.18;1.88;;;358.40;1331.20;;;;;;5089720;28;20032;-78
2021/05/06 05:56:40;;;;;;;5.20;2.00;;;358.80;1331.20;;;;;;5102988;28;20161;-79
2021/05/06 05:59:06;;;;;;;6.07;2.00;;;358.80;1356.80;;;;;;5094871;28;20080;-80
2021/05/06 06:01:32;;;;;;;8.85;2.03;;;358.90;1356.80;;;;;;5105278;28;20078;-78
2021/05/06 06:03:58;;;;;;;6.55;2.33;;;359.00;1356.80;;;;;;5080185;28;20482;-79
2021/05/06 06:06:24;;;;;;;4.03;1.77;;;359.00;1331.20;;;;;;5112897;28;20027;-78
2021/05/06 06:08:50;;;;;;;5.18;1.60;;;358.90;1356.80;;;;;;5110146;28;20024;-79
2021/05/06 06:11:16;;;;;;;6.22;2.05;;;358.80;1331.20;;;;;;5112437;28;20030;-79
2021/05/06 06:13:44;;;;;;;3.60;2.00;;;358.60;1331.20;;;;;;5096559;28;20023;-77
2021/05/06 06:16:19;;;;;;;9.43;1.83;;;358.70;1331.20;;;;;;5108199;28;20023;-78
2021/05/06 06:18:48;;;;;;;2.60;1.50;;;358.80;1331.20;;;;;;5109584;28;20106;-78
2021/05/06 06:23:59;;;;;;;23.77;2.65;;;358.80;1331.20;;;;;;5103515;28;20054;-76
2021/05/06 06:26:26;;;;;;;2.45;1.50;;;358.80;1254.40;;;;;;5105909;28;20025;-79
2021/05/06 06:28:55;;;;;;;12.57;1.60;;;358.90;1280.00;;;;;;5107534;28;20024;-77
2021/05/06 06:31:27;;;;;;;5.30;1.42;;;359.00;1280.00;;;;;;5090795;28;20120;-78
2021/05/06 06:33:53;;;;;;;2.25;1.20;;;359.10;1254.40;;;;;;5090822;28;20027;-78
2021/05/06 06:36:19;;;;;;;3.65;1.15;;;359.20;1280.00;;;;;;5091339;28;20535;-80
2021/05/06 06:38:45;;;;;;;6.47;1.30;;;359.00;1280.00;;;;;;5100794;28;20047;-78
2021/05/06 06:41:13;;;;;;;4.38;1.60;;;359.00;1305.60;;;;;;5094591;28;20024;-78
2021/05/06 06:43:44;;;;;;;3.60;1.30;;;359.00;1280.00;;;;;;5095809;28;20118;-79
2021/05/06 06:46:10;;;;;;;3.47;1.30;;;358.90;1280.00;;;;;;5093079;28;20044;-78
2021/05/06 06:48:35;;;;;;;4.13;1.35;;;358.90;1280.00;;;;;;5096176;28;20032;-79
2021/05/06 06:51:02;;;;;;;3.95;1.27;;;359.00;1305.60;;;;;;5110898;28;20483;-81
2021/05/06 06:53:29;;;;;;;2.47;1.00;;;358.90;1254.40;;;;;;5094202;28;20032;-79
2021/05/06 06:55:55;;;;;;;11.00;1.52;;;359.10;1254.40;;;;;;5083787;28;20025;-79
2021/05/06 06:58:21;;;;;;;2.17;1.20;;;359.00;1254.40;;;;;;5093657;28;20131;-76
2021/05/06 07:00:47;;;;;;;21.48;2.88;;;359.00;1228.80;;;;;;5106314;28;20106;-80
2021/05/06 07:03:14;;;;;;;9.57;1.55;;;359.00;1254.40;;;;;;5083263;28;20020;-77
2021/05/06 07:05:43;;;;;;;3.97;1.08;;;359.00;1228.80;;;;;;5097439;28;20028;-78
2021/05/06 07:08:23;;;;;;;5.28;1.45;;;359.00;1228.80;;;;;;5112039;28;20020;-78
2021/05/06 07:10:50;;;;;;;2.20;1.10;;;359.10;1254.40;;;;;;5102670;28;20031;-79
2021/05/06 07:13:17;;;;;;;2.88;1.23;;;359.20;1228.80;;;;;;5095461;28;20494;-79
2021/05/06 07:15:47;;;;;;;5.72;1.50;;;359.20;1177.60;;;;;;5107274;28;20475;-78
2021/05/06 07:18:13;;;;;;;4.85;2.15;;;384.10;1228.80;;;;;;5098382;28;20161;-78
2021/05/06 07:20:42;;;;;;;8.25;1.35;;;384.10;1177.60;;;;;;5105730;28;20128;-80
2021/05/06 07:23:08;;;;;;;1.35;0.77;;;384.30;1126.40;;;;;;5079276;28;20059;-78
2021/05/06 07:25:33;;;;;;;2.10;1.20;;;384.20;1177.60;;;;;;5103042;28;20487;-79
2021/05/06 07:28:11;;;;;;;2.60;1.40;;;384.10;1177.60;;;;;;5104706;28;20038;-78
2021/05/06 07:30:37;;;;;;;16.63;8.43;;;384.20;1152.00;;;;;;5107190;28;20046;-79
2021/05/06 07:33:03;;;;;;;4.53;2.20;;;384.40;1177.60;;;;;;5102916;28;20473;-78
2021/05/06 07:35:31;;;;;;;26.55;11.35;;;384.20;1203.20;;;;;;5105566;28;20110;-80
2021/05/06 07:37:57;;;;;;;163.15;72.90;;;384.30;1203.20;;;;;;5090668;28;20073;-78
2021/05/06 07:40:23;;;;;;;12.57;6.60;;;384.40;1203.20;;;;;;5083048;28;20145;-78
2021/05/06 07:42:48;;;;;;;5.72;1.83;;;384.40;1203.20;;;;;;5079240;28;20568;-77
2021/05/06 07:45:14;;;;;;;5.80;1.50;;;384.40;1203.20;;;;;;5105635;28;20504;-80
2021/05/06 07:47:40;;;;;;;1.10;0.82;;;384.30;1177.60;;;;;;5102508;28;20088;-76
2021/05/06 07:50:06;;;;;;;4.00;1.15;;;384.20;1177.60;;;;;;5097775;28;20028;-78
2021/05/06 07:52:33;;;;;;;4.97;1.13;;;384.30;1177.60;;;;;;5102807;28;20044;-76
2021/05/06 07:54:59;;;;;;;2.85;1.10;;;384.40;1177.60;;;;;;5107636;28;20022;-76
2021/05/06 07:57:25;;;;;;;3.17;1.20;;;384.40;1203.20;;;;;;5102971;28;20052;-76
2021/05/06 07:59:51;;;;;;;1.85;1.05;;;384.30;1203.20;;;;;;5094535;28;20027;-76
2021/05/06 08:02:17;;;;;;;3.75;1.63;;;384.50;1126.40;;;;;;5107437;28;20015;-75
2021/05/06 08:04:43;;;;;;;2.42;1.00;;;384.80;1126.40;;;;;;5101661;28;20073;-75
2021/05/06 08:07:08;;;;;;;2.45;1.00;;;384.90;1100.80;;;;;;5100901;28;20085;-75
2021/05/06 08:09:34;;;;;;;1.77;0.95;;;384.90;1126.40;;;;;;5104965;28;20487;-79
2021/05/06 08:12:02;;;;;;;2.35;1.38;;;384.90;1126.40;;;;;;5103443;28;20460;-76
2021/05/06 08:14:28;;;;;;;3.70;1.17;;;384.90;1126.40;;;;;;5106695;28;20031;-79
2021/05/06 08:16:54;;;;;;;2.67;1.30;;;409.60;1126.40;;;;;;5108559;28;20047;-78
2021/05/06 08:19:20;;;;;;;2.63;1.00;;;384.90;1126.40;;;;;;5095918;28;20032;-79
2021/05/06 08:21:47;;;;;;;2.20;1.10;;;409.60;1152.00;;;;;;5109521;28;20023;-75
2021/05/06 08:24:13;;;;;;;2.65;1.17;;;384.90;1075.20;;;;;;5103556;28;20035;-76
2021/05/06 08:26:40;;;;;;;2.13;1.00;;;409.70;1152.00;;;;;;5104929;28;20492;-76
2021/05/06 08:29:05;;;;;;;2.40;0.95;;;409.70;1126.40;;;;;;5102266;28;20032;-77
2021/05/06 08:31:31;;;;;;;1.65;0.90;;;409.70;1152.00;;;;;;5103404;28;20479;-77
2021/05/06 08:33:58;;;;;;;2.65;1.23;;;409.70;1126.40;;;;;;5106811;28;20030;-74
2021/05/06 08:36:24;;;;;;;3.05;0.85;;;409.80;1126.40;;;;;;5111592;28;20069;-80
2021/05/06 08:38:51;;;;;;;5.28;1.00;;;409.90;1100.80;;;;;;5109127;28;20030;-76
2021/05/06 08:41:18;;;;;;;2.75;1.13;;;409.90;1126.40;;;;;;5095508;28;20078;-75
2021/05/06 08:43:51;;;;;;;2.65;1.10;;;410.10;1126.40;;;;;;5096624;28;20110;-76
2021/05/06 08:46:18;;;;;;;2.50;1.45;;;410.00;1024.00;;;;;;5105245;28;20027;-74
2021/05/06 08:48:45;;;;;;;2.63;0.85;;;410.20;1024.00;;;;;;5097935;28;20488;-77
2021/05/06 08:51:11;;;;;;;3.15;1.52;;;410.10;1075.20;;;;;;5103152;28;20097;-75
2021/05/06 08:53:37;;;;;;;2.60;1.00;;;410.30;1075.20;;;;;;5099421;28;20032;-75
2021/05/06 08:56:03;;;;;;;2.00;1.00;;;410.20;972.80;;;;;;5094576;28;20066;-75
2021/05/06 08:58:29;;;;;;;1.77;1.00;;;410.10;998.40;;;;;;5089004;28;20032;-73
2021/05/06 09:00:55;;;;;;;2.92;1.13;;;410.20;1049.60;;;;;;5109795;28;20028;-75
2021/05/06 09:03:21;;;;;;;3.45;1.20;;;410.20;1100.80;;;;;;5094106;28;20056;-76
2021/05/06 09:06:11;;;;;;;2.88;1.70;;;410.40;1049.60;;;;;;5111363;28;20173;-77
2021/05/06 09:08:53;;;;;;;3.72;1.50;;;410.40;1024.00;;;;;;5114742;28;20391;-75
2021/05/06 09:11:53;;;;;;;2.03;0.93;;;410.50;1049.60;;;;;;5113411;28;20065;-75
2021/05/06 09:14:33;;;;;;;2.63;1.30;;;410.50;1024.00;;;;;;5011639;28;20026;-74
2021/05/06 09:16:58;;;;;;;1.50;1.00;;;410.50;1049.60;;;;;;5012176;28;20113;-77
2021/05/06 09:19:24;;;;;;;5.63;1.20;;;410.50;1049.60;;;;;;5011743;28;20149;-78
2021/05/06 09:21:50;;;;;;;2.35;1.25;;;410.50;1049.60;;;;;;5001208;28;20042;-78
2021/05/06 09:24:27;;;;;;;3.53;1.30;;;435.20;1075.20;;;;;;4994776;28;20414;-77
2021/05/06 09:26:56;;;;;;;0.82;0.60;;;410.50;1100.80;;;;;;4996550;28;20030;-78
2021/05/06 09:29:40;;;;;;;4.28;1.90;;;435.20;1049.60;;;;;;4994693;28;20061;-75
2021/05/06 09:32:10;;;;;;;2.45;1.20;;;410.50;1100.80;;;;;;5013653;28;20053;-80
2021/05/06 09:34:37;;;;;;;4.57;1.27;;;410.50;1126.40;;;;;;5009420;28;20092;-75
2021/05/06 09:37:03;;;;;;;1.73;1.23;;;435.20;1075.20;;;;;;5001336;28;20072;-79
2021/05/06 09:39:29;;;;;;;5.45;1.38;;;435.30;1075.20;;;;;;4993375;28;20052;-76
2021/05/06 09:42:15;;;;;;;3.92;0.98;;;435.50;1100.80;;;;;;5011043;28;20482;-79
2021/05/06 09:44:51;;;;;;;2.17;1.15;;;435.90;1100.80;;;;;;5010737;28;20038;-79
2021/05/06 09:47:17;;;;;;;2.58;1.10;;;461.10;1075.20;;;;;;5008134;28;20482;-78
2021/05/06 09:49:44;;;;;;;0.82;0.70;;;461.20;1049.60;;;;;;5019276;28;20022;-78
2021/05/06 09:52:09;;;;;;;2.17;0.85;;;461.50;998.40;;;;;;5072698;28;20110;-79
2021/05/06 09:54:46;;;;;;;4.13;0.75;;;486.40;921.60;;;;;;5092414;28;20487;-78
2021/05/06 09:57:12;;;;;;;2.70;0.80;;;486.40;921.60;;;;;;5090514;28;20506;-79
2021/05/06 09:59:39;;;;;;;2.78;0.80;;;461.50;921.60;;;;;;5099551;28;20023;-79
2021/05/06 10:02:13;;;;;;;2.60;1.00;;;461.40;947.20;;;;;;5074775;28;20034;-78
2021/05/06 10:04:41;;;;;;;3.90;1.15;;;461.50;972.80;;;;;;5078986;28;20038;-78
2021/05/06 10:07:20;;;;;;;1.77;1.08;;;486.60;947.20;;;;;;5088754;28;20047;-78
2021/05/06 10:10:03;;;;;;;5.88;1.25;;;486.60;947.20;;;;;;5100716;28;20020;-78
2021/05/06 10:12:34;;;;;;;1.33;0.70;;;486.50;844.80;;;;;;5099211;28;20026;-78
2021/05/06 10:15:00;;;;;;;1.83;0.90;;;487.00;896.00;;;;;;5094304;28;20027;-79
2021/05/06 10:17:28;;;;;;;1.23;0.90;;;487.20;896.00;;;;;;5089150;28;20032;-78
2021/05/06 10:19:55;;;;;;;2.58;1.10;;;512.00;793.60;;;;;;5100210;28;20020;-79
2021/05/06 10:22:23;;;;;;;1.15;0.75;;;487.10;844.80;;;;;;5107508;28;20040;-79
2021/05/06 10:24:49;;;;;;;2.50;0.80;;;487.00;819.20;;;;;;5102620;28;20028;-78
2021/05/06 10:27:26;;;;;;;0.52;0.50;;;486.70;819.20;;;;;;5096792;28;20069;-79
2021/05/06 10:29:56;;;;;;;1.13;0.88;;;487.10;793.60;;;;;;5092309;28;20023;-78
2021/05/06 10:32:24;;;;;;;2.88;1.40;;;487.30;819.20;;;;;;5086116;28;20042;-78
2021/05/06 10:34:55;;;;;;;1.90;0.82;;;512.50;793.60;;;;;;5108311;28;20015;-78
2021/05/06 10:37:29;;;;;;;1.33;0.75;;;512.50;768.00;;;;;;5097024;28;20028;-77
2021/05/06 10:39:55;;;;;;;2.80;1.58;;;512.40;742.40;;;;;;5088147;28;20016;-78
2021/05/06 10:42:31;;;;;;;2.53;1.42;;;487.00;819.20;;;;;;5093775;28;20073;-77
2021/05/06 10:44:59;;;;;;;2.53;1.00;;;486.70;819.20;;;;;;5094802;28;20469;-78
2021/05/06 10:47:43;;;;;;;2.85;1.10;;;486.70;896.00;;;;;;5108428;28;20087;-78
2021/05/06 10:50:24;;;;;;;4.00;1.20;;;461.50;921.60;;;;;;5087996;28;20032;-78
2021/05/06 10:52:55;;;;;;;1.58;1.13;;;461.70;870.40;;;;;;5098041;28;20527;-78
2021/05/06 10:55:47;;;;;;;1.38;0.90;;;486.40;870.40;;;;;;5108419;28;20027;-78
2021/05/06 10:58:22;;;;;;;5.05;1.10;;;461.50;819.20;;;;;;5073836;28;20058;-77
2021/05/06 11:01:05;;;;;;;2.15;0.80;;;461.40;844.80;;;;;;5085545;28;20111;-77
2021/05/06 11:03:32;;;;;;;1.75;1.00;;;461.50;844.80;;;;;;5086212;28;20020;-77
2021/05/06 11:05:59;;;;;;;2.08;1.00;;;461.40;844.80;;;;;;5090489;28;20089;-78
2021/05/06 11:08:29;;;;;;;2.17;1.13;;;461.50;844.80;;;;;;5074698;28;20024;-76
2021/05/06 11:11:04;;;;;;;5.15;1.20;;;461.70;844.80;;;;;;5100952;28;20050;-78
2021/05/06 11:14:10;;;;;;;4.00;1.15;;;486.40;870.40;;;;;;5080649;28;20459;-78
2021/05/06 11:16:36;;;;;;;3.88;1.20;;;486.50;870.40;;;;;;5105104;28;20062;-78
2021/05/06 11:19:03;;;;;;;4.10;1.40;;;486.60;896.00;;;;;;5107137;28;20038;-76
2021/05/06 11:21:36;;;;;;;2.80;1.38;;;486.50;947.20;;;;;;5097254;28;20034;-78
2021/05/06 11:24:17;;;;;;;3.88;1.20;;;486.90;844.80;;;;;;5090368;28;20040;-79
2021/05/06 11:27:12;;;;;;;2.85;1.35;;;487.30;921.60;;;;;;5097831;28;20812;-78
2021/05/06 11:29:42;;;;;;;3.95;1.60;;;487.30;870.40;;;;;;5081668;28;20479;-78
2021/05/06 11:32:37;;;;;;;4.70;1.70;;;512.10;870.40;;;;;;5082971;28;20042;-78
2021/05/06 11:35:04;;;;;;;3.05;1.73;;;512.80;793.60;;;;;;5027148;28;20029;-76
2021/05/06 11:37:30;;;;;;;5.03;1.35;;;512.60;819.20;;;;;;5023499;28;20113;-77
2021/05/06 11:40:01;;;;;;;3.33;1.30;;;512.80;793.60;;;;;;5007203;28;20035;-77
2021/05/06 11:42:29;;;;;;;5.53;1.60;;;512.70;819.20;;;;;;5042562;28;20603;-77
2021/05/06 11:45:31;;;;;;;3.08;1.52;;;512.90;793.60;;;;;;5035321;28;20504;-77
2021/05/06 11:47:57;;;;;;;4.45;1.20;;;512.60;819.20;;;;;;4997034;28;20064;-78
2021/05/06 11:50:29;;;;;;;5.80;1.45;;;512.90;768.00;;;;;;4977219;28;20034;-77
2021/05/06 11:52:56;;;;;;;2.30;1.23;;;512.90;793.60;;;;;;4993669;28;20050;-77
2021/05/06 11:55:31;;;;;;;3.33;1.50;;;512.90;819.20;;;;;;5001776;28;20096;-77
2021/05/06 11:57:57;;;;;;;2.42;1.20;;;537.60;819.20;;;;;;5004353;28;20131;-78
2021/05/06 12:00:28;;;;;;;5.43;1.50;;;512.80;793.60;;;;;;5011877;28;20034;-78
2021/05/06 12:03:02;;;;;;;3.13;1.42;;;512.10;870.40;;;;;;5008782;28;20026;-77
2021/05/06 12:05:57;;;;;;;5.43;1.63;;;512.10;819.20;;;;;;5009876;28;20541;-77
2021/05/06 12:08:44;;;;;;;4.07;1.40;;;512.20;819.20;;;;;;5010965;28;20514;-78
2021/05/06 12:11:10;;;;;;;3.45;1.23;;;512.70;844.80;;;;;;5015100;28;20081;-79
2021/05/06 12:13:37;;;;;;;4.45;1.52;;;537.60;896.00;;;;;;5035082;28;20028;-78
2021/05/06 12:16:11;;;;;;;3.60;1.50;;;538.00;793.60;;;;;;5051319;28;20433;-78
2021/05/06 12:18:36;;;;;;;6.97;2.22;;;538.20;768.00;;;;;;5033902;28;20073;-78
2021/05/06 12:21:05;;;;;;;2.10;1.50;;;538.40;793.60;;;;;;5032201;28;20600;-78
2021/05/06 12:23:32;;;;;;;6.70;1.40;;;538.50;768.00;;;;;;5081141;28;20089;-78
2021/05/06 12:25:58;;;;;;;4.72;1.65;;;563.40;768.00;;;;;;5100939;28;20114;-78
2021/05/06 12:28:23;;;;;;;2.55;1.60;;;538.50;768.00;;;;;;5089947;28;20122;-78
2021/05/06 12:30:57;;;;;;;3.97;1.67;;;563.20;768.00;;;;;;5093691;28;20035;-77
2021/05/06 12:33:31;;;;;;;3.15;1.58;;;538.40;793.60;;;;;;5108667;28;20042;-78
2021/05/06 12:35:57;;;;;;;12.35;4.07;;;563.30;768.00;;;;;;5109016;28;20023;-78
2021/05/06 12:38:24;;;;;;;2.67;1.63;;;563.20;819.20;;;;;;5104372;28;20061;-78
2021/05/06 12:40:51;;;;;;;3.75;1.77;;;563.20;896.00;;;;;;5096491;28;20032;-78
2021/05/06 12:43:31;;;;;;;5.30;1.45;;;563.50;793.60;;;;;;5090403;28;20027;-78
2021/05/06 12:46:10;;;;;;;2.88;1.48;;;538.50;768.00;;;;;;5096686;28;20039;-78
2021/05/06 12:48:45;;;;;;;3.25;1.60;;;563.50;768.00;;;;;;5100985;28;20027;-78
2021/05/06 12:51:13;;;;;;;4.63;1.40;;;563.60;768.00;;;;;;5100518;28;20080;-78
2021/05/06 12:54:11;;;;;;;3.55;1.42;;;563.80;742.40;;;;;;5105166;28;20110;-78
2021/05/06 12:56:39;;;;;;;2.70;1.50;;;563.60;768.00;;;;;;5075633;28;20024;-79
2021/05/06 12:59:28;;;;;;;1.73;1.17;;;563.30;819.20;;;;;;5100371;28;20073;-78
2021/05/06 13:02:06;;;;;;;3.20;1.67;;;563.60;742.40;;;;;;5110169;28;20375;-78
2021/05/06 13:05:01;;;;;;;4.10;1.83;;;538.50;768.00;;;;;;5079589;28;20421;-78
2021/05/06 13:07:28;;;;;;;4.35;1.38;;;563.50;768.00;;;;;;4982210;28;20109;-78
2021/05/06 13:09:55;;;;;;;3.78;1.92;;;563.50;793.60;;;;;;4992994;28;20035;-78
2021/05/06 13:12:26;;;;;;;3.28;1.63;;;563.60;793.60;;;;;;5006763;28;20130;-78
2021/05/06 13:14:51;;;;;;;3.70;1.90;;;563.20;793.60;;;;;;4993918;28;20029;-78
2021/05/06 13:17:35;;;;;;;3.78;1.63;;;538.40;844.80;;;;;;4995016;28;20585;-79
2021/05/06 13:20:24;;;;;;;3.80;1.75;;;563.50;819.20;;;;;;5011139;28;20109;-78
2021/05/06 13:23:04;;;;;;;4.55;2.05;;;563.30;870.40;;;;;;5010255;28;20042;-78
2021/05/06 13:25:50;;;;;;;6.22;1.75;;;563.40;819.20;;;;;;5011093;28;20053;-77
2021/05/06 13:28:19;;;;;;;4.70;1.80;;;563.20;844.80;;;;;;5013910;28;20025;-78
2021/05/06 13:30:46;;;;;;;2.92;1.50;;;538.40;819.20;;;;;;4996005;28;20030;-78
2021/05/06 13:33:14;;;;;;;9.45;1.85;;;563.40;844.80;;;;;;5009641;28;20142;-79
2021/05/06 13:35:40;;;;;;;4.50;1.80;;;563.20;844.80;;;;;;5011024;28;20021;-78
2021/05/06 13:38:06;;;;;;;3.95;1.80;;;563.60;819.20;;;;;;4993924;28;20446;-78
2021/05/06 13:40:32;;;;;;;6.03;2.05;;;563.70;793.60;;;;;;4988792;28;20037;-78
2021/05/06 13:42:58;;;;;;;4.80;1.67;;;563.90;819.20;;;;;;5025424;28;20119;-78
2021/05/06 13:45:24;;;;;;;3.53;1.90;;;563.80;768.00;;;;;;5083105;28;20162;-78
2021/05/06 13:47:50;;;;;;;3.15;1.50;;;563.60;844.80;;;;;;5113472;28;20043;-78
2021/05/06 13:50:16;;;;;;;4.25;1.75;;;563.60;819.20;;;;;;5093466;28;20427;-78
2021/05/06 13:52:43;;;;;;;5.07;1.50;;;563.60;819.20;;;;;;5109881;28;20141;-78
2021/05/06 13:55:10;;;;;;;3.63;1.40;;;563.50;870.40;;;;;;5112750;28;20027;-78
2021/05/06 13:57:37;;;;;;;2.13;1.48;;;563.30;870.40;;;;;;5085486;28;20032;-78
2021/05/06 14:00:04;;;;;;;2.53;1.48;;;563.60;819.20;;;;;;5092977;28;20016;-78
2021/05/06 14:02:30;;;;;;;3.83;1.42;;;538.40;793.60;;;;;;5086253;28;20034;-79
2021/05/06 14:04:56;;;;;;;2.97;1.63;;;563.20;793.60;;;;;;5107000;28;20034;-78
2021/05/06 14:07:22;;;;;;;3.08;1.23;;;538.30;793.60;;;;;;5087348;28;20126;-78
2021/05/06 14:09:49;;;;;;;2.83;1.60;;;563.20;793.60;;;;;;5087354;28;20028;-79
2021/05/06 14:12:15;;;;;;;6.85;1.38;;;538.40;819.20;;;;;;5078607;28;20429;-78
2021/05/06 14:14:41;;;;;;;2.72;1.58;;;538.50;844.80;;;;;;5102833;28;20061;-78
2021/05/06 14:17:06;;;;;;;3.60;1.80;;;563.20;793.60;;;;;;5074239;28;20031;-81
2021/05/06 14:19:32;;;;;;;5.75;1.30;;;563.40;793.60;;;;;;5102898;28;20028;-79
2021/05/06 14:21:58;;;;;;;3.35;1.55;;;563.20;793.60;;;;;;5105197;28;20088;-80
2021/05/06 14:24:24;;;;;;;2.25;1.30;;;563.40;819.20;;;;;;5091408;28;20044;-80
2021/05/06 14:26:50;;;;;;;3.63;1.83;;;538.50;819.20;;;;;;5099964;28;20022;-78
2021/05/06 14:29:17;;;;;;;3.58;1.60;;;538.50;819.20;;;;;;5099684;28;20016;-79
2021/05/06 14:31:43;;;;;;;5.30;1.75;;;538.20;819.20;;;;;;5087660;28;20523;-78
2021/05/06 14:34:09;;;;;;;2.80;1.40;;;538.50;819.20;;;;;;5073980;28;20066;-78
2021/05/06 14:36:36;;;;;;;5.70;1.50;;;538.50;768.00;;;;;;5100460;28;20028;-77
2021/05/06 14:39:03;;;;;;;2.63;1.58;;;538.40;819.20;;;;;;5106062;28;20019;-78
2021/05/06 14:41:29;;;;;;;4.53;1.40;;;538.50;819.20;;;;;;5111636;28;20023;-77
2021/05/06 14:43:56;;;;;;;5.90;1.60;;;563.20;819.20;;;;;;5089542;28;20054;-79
2021/05/06 14:46:22;;;;;;;4.03;1.67;;;538.40;819.20;;;;;;5111259;28;20099;-77
2021/05/06 14:48:48;;;;;;;2.80;1.58;;;538.40;844.80;;;;;;5085618;28;20035;-76
2021/05/06 14:51:14;;;;;;;3.45;1.50;;;538.30;819.20;;;;;;5104053;28;20055;-79
2021/05/06 14:53:40;;;;;;;3.53;1.55;;;538.20;819.20;;;;;;5089583;28;20356;-78
2021/05/06 14:56:06;;;;;;;4.30;1.40;;;538.30;844.80;;;;;;5086570;28;20032;-78
2021/05/06 14:58:31;;;;;;;2.67;1.35;;;538.10;844.80;;;;;;5093949;28;20024;-79
2021/05/06 15:00:58;;;;;;;4.82;1.75;;;538.30;768.00;;;;;;5102581;28;20093;-78
2021/05/06 15:03:24;;;;;;;4.93;1.58;;;538.50;768.00;;;;;;5078936;28;20040;-78
2021/05/06 15:05:49;;;;;;;2.83;1.58;;;563.20;793.60;;;;;;5107387;28;20118;-78
2021/05/06 15:08:17;;;;;;;3.33;1.30;;;538.50;819.20;;;;;;5076967;28;20446;-79
2021/05/06 15:10:43;;;;;;;3.92;1.63;;;563.20;819.20;;;;;;5104181;28;20046;-79
2021/05/06 15:13:09;;;;;;;3.85;1.40;;;538.10;844.80;;;;;;5086728;28;20474;-78
2021/05/06 15:15:35;;;;;;;5.95;2.17;;;538.10;819.20;;;;;;5092284;28;20076;-78
2021/05/06 15:18:00;;;;;;;4.03;1.70;;;538.10;870.40;;;;;;5081795;28;20023;-79
2021/05/06 15:20:26;;;;;;;2.42;1.38;;;538.30;819.20;;;;;;5111637;28;20106;-78
2021/05/06 15:22:53;;;;;;;4.85;2.00;;;538.20;870.40;;;;;;5111314;28;20072;-79
2021/05/06 15:25:23;;;;;;;3.28;1.75;;;538.40;844.80;;;;;;5092201;28;20039;-78
2021/05/06 15:27:49;;;;;;;3.53;1.60;;;538.00;844.80;;;;;;5108235;28;20391;-79
2021/05/06 15:30:18;;;;;;;3.45;1.98;;;538.00;793.60;;;;;;5092890;28;20028;-78
2021/05/06 15:32:44;;;;;;;8.75;1.75;;;538.30;844.80;;;;;;5111640;28;20102;-78
2021/05/06 15:35:11;;;;;;;7.25;1.60;;;538.20;896.00;;;;;;5108648;28;20153;-78
2021/05/06 15:37:37;;;;;;;5.00;2.00;;;537.90;844.80;;;;;;5091661;28;20030;-79
2021/05/06 15:40:05;;;;;;;6.00;1.63;;;537.70;870.40;;;;;;5107821;28;20012;-78
2021/05/06 15:42:31;;;;;;;5.13;1.45;;;537.80;844.80;;;;;;5098279;28;20063;-79
2021/05/06 15:44:56;;;;;;;2.38;1.27;;;537.90;844.80;;;;;;5098921;28;20038;-78
2021/05/06 15:47:22;;;;;;;6.60;1.52;;;537.90;844.80;;;;;;5105586;28;20054;-78
2021/05/06 15:49:48;;;;;;;2.10;1.40;;;538.00;844.80;;;;;;5087944;28;20031;-78
2021/05/06 15:52:14;;;;;;;3.03;1.60;;;538.00;819.20;;;;;;5096360;28;20111;-78
2021/05/06 15:54:40;;;;;;;4.80;1.40;;;538.10;819.20;;;;;;5098221;28;20024;-78
2021/05/06 15:57:07;;;;;;;5.22;1.23;;;538.00;844.80;;;;;;5108973;28;20027;-78
2021/05/06 15:59:36;;;;;;;3.97;1.60;;;537.90;870.40;;;;;;5108035;28;20020;-79
2021/05/06 16:02:03;;;;;;;14.23;2.45;;;537.70;870.40;;;;;;5110826;28;20029;-78
2021/05/06 16:04:33;;;;;;;5.38;1.30;;;537.60;870.40;;;;;;5087108;28;20107;-79
2021/05/06 16:06:59;;;;;;;4.90;1.52;;;512.90;844.80;;;;;;5076232;28;20458;-78
2021/05/06 16:09:25;;;;;;;6.40;1.88;;;512.90;870.40;;;;;;5105177;28;20027;-78
2021/05/06 16:11:53;;;;;;;9.02;1.88;;;512.90;870.40;;;;;;5109320;28;20061;-78
2021/05/06 16:14:19;;;;;;;5.45;1.83;;;512.90;844.80;;;;;;5103097;28;20030;-77
2021/05/06 16:16:46;;;;;;;3.90;1.95;;;512.90;870.40;;;;;;5102962;28;20031;-79
2021/05/06 16:19:11;;;;;;;5.63;1.58;;;512.70;870.40;;;;;;5111436;28;20019;-78
2021/05/06 16:21:38;;;;;;;3.40;1.42;;;512.40;870.40;;;;;;5091068;28;20048;-76
2021/05/06 16:24:05;;;;;;;3.63;1.73;;;512.30;896.00;;;;;;5108547;28;20027;-79
2021/05/06 16:26:32;;;;;;;4.65;1.70;;;512.40;870.40;;;;;;5094243;28;20494;-79